Time;durP1;ratioP1;P1;durP2;ratioP2;P2;SDS_P1;SDS_P2;PMS_P1;PMS_P2;Temp;Humidity;BMP_temperature;BMP_pressure;BME280_temperature;BME280_humidity;BME280_pressure;Samples;Min_cycle;Max_cycle;Signal;HPM_P1;HPM_P2
2023/07/22 00:00:08;;;;;;;9.80;6.07;;;;;;;14.65;100.00;101230.34;5071956;28;20411;-62
2023/07/22 00:02:37;;;;;;;9.80;5.67;;;;;;;14.74;100.00;101234.09;5070610;28;20052;-61
2023/07/22 00:05:10;;;;;;;10.98;6.15;;;;;;;14.77;100.00;101228.56;5069389;28;20063;-56
2023/07/22 00:07:40;;;;;;;9.38;5.43;;;;;;;14.80;100.00;101223.88;5068689;28;20101;-56
2023/07/22 00:10:09;;;;;;;12.25;5.57;;;;;;;14.81;100.00;101235.31;5068903;28;20044;-62
2023/07/22 00:12:37;;;;;;;10.90;6.10;;;;;;;14.77;100.00;101228.56;5071347;28;20082;-62
2023/07/22 00:15:11;;;;;;;9.40;5.90;;;;;;;14.70;100.00;101228.19;5067847;28;20055;-62
2023/07/22 00:17:41;;;;;;;10.57;6.20;;;;;;;14.67;100.00;101228.41;5068215;28;20052;-62
2023/07/22 00:20:11;;;;;;;9.60;6.03;;;;;;;14.63;100.00;101222.53;5068879;28;20097;-56
2023/07/22 00:22:40;;;;;;;10.65;6.35;;;;;;;14.62;100.00;101225.25;5068000;28;20071;-61
2023/07/22 00:25:10;;;;;;;12.10;6.50;;;;;;;14.63;100.00;101225.19;5068464;28;20430;-62
2023/07/22 00:27:39;;;;;;;10.85;6.07;;;;;;;14.54;100.00;101218.72;5069412;28;20053;-62
2023/07/22 00:30:09;;;;;;;10.07;5.70;;;;;;;14.56;100.00;101223.06;5071992;28;20068;-62
2023/07/22 00:32:37;;;;;;;12.35;7.15;;;;;;;14.44;100.00;101216.91;5072056;28;20124;-62
2023/07/22 00:35:09;;;;;;;10.75;6.15;;;;;;;14.47;100.00;101212.22;5072227;28;20408;-62
2023/07/22 00:37:39;;;;;;;11.98;6.82;;;;;;;14.48;100.00;101213.91;5070687;28;20051;-62
2023/07/22 00:40:11;;;;;;;9.85;6.47;;;;;;;14.49;100.00;101214.75;5068429;28;20044;-62
2023/07/22 00:42:40;;;;;;;;;;;;;;;14.47;100.00;101211.41;5070673;28;20056;-61
2023/07/22 00:45:08;;;;;;;11.32;6.78;;;;;;;14.29;100.00;101214.47;5069057;28;19920;-61
2023/07/22 00:47:38;;;;;;;14.48;6.85;;;;;;;14.30;100.00;101210.00;5067447;28;20120;-61
2023/07/22 00:50:08;;;;;;;13.35;7.70;;;;;;;14.23;100.00;101209.63;5071640;28;20075;-62
2023/07/22 00:52:37;;;;;;;13.82;8.10;;;;;;;14.10;100.00;101208.88;5071930;28;20475;-55
2023/07/22 00:55:07;;;;;;;12.85;7.47;;;;;;;13.99;100.00;101204.38;5069473;28;20053;-62
2023/07/22 00:57:39;;;;;;;13.50;8.10;;;;;;;14.07;100.00;101209.94;5067422;28;20115;-58
2023/07/22 01:00:11;;;;;;;13.45;8.00;;;;;;;14.11;100.00;101206.09;5066776;28;20095;-63
2023/07/22 01:02:42;;;;;;;13.18;7.30;;;;;;;14.08;100.00;101203.66;5067166;28;20052;-62
2023/07/22 01:05:11;;;;;;;14.25;8.00;;;;;;;14.10;100.00;101204.41;5069257;28;20060;-57
2023/07/22 01:07:39;;;;;;;12.82;7.82;;;;;;;14.03;100.00;101201.38;5053340;28;20056;-56
2023/07/22 01:10:10;;;;;;;15.10;7.95;;;;;;;13.94;100.00;101203.88;5067958;28;20056;-56
2023/07/22 01:12:38;;;;;;;12.50;7.93;;;;;;;13.88;100.00;101199.88;5067194;28;20495;-56
2023/07/22 01:15:08;;;;;;;18.63;8.20;;;;;;;13.92;100.00;101196.06;5066964;28;20052;-56
2023/07/22 01:17:38;;;;;;;15.35;8.57;;;;;;;14.02;100.00;101197.03;5068470;28;20044;-61
2023/07/22 01:20:09;;;;;;;13.40;7.72;;;;;;;14.10;100.00;101190.34;5070811;28;20083;-61
2023/07/22 01:22:39;;;;;;;12.63;8.15;;;;;;;14.11;100.00;101192.03;5071127;28;20480;-61
2023/07/22 01:25:09;;;;;;;13.70;8.88;;;;;;;14.14;100.00;101190.00;5052885;28;20160;-61
2023/07/22 01:27:37;;;;;;;15.32;9.13;;;;;;;14.20;100.00;101178.94;5070454;28;20106;-62
2023/07/22 01:30:09;;;;;;;13.30;8.10;;;;;;;14.20;100.00;101188.69;5048727;28;20049;-56
2023/07/22 01:32:38;;;;;;;14.48;9.30;;;;;;;14.27;100.00;101187.25;5067718;28;20059;-56
2023/07/22 01:35:10;;;;;;;14.48;8.70;;;;;;;14.35;100.00;101184.88;5068101;28;20070;-61
2023/07/22 01:37:38;;;;;;;14.77;9.10;;;;;;;14.26;100.00;101187.38;5066985;28;20040;-62
2023/07/22 01:40:11;;;;;;;15.48;9.88;;;;;;;14.34;100.00;101183.22;5070809;28;20052;-61
2023/07/22 01:42:40;;;;;;;14.77;9.40;;;;;;;14.34;100.00;101183.22;5051098;28;20049;-57
2023/07/22 01:45:10;;;;;;;15.52;9.82;;;;;;;14.26;100.00;101182.09;5066451;28;20060;-56
2023/07/22 01:47:39;;;;;;;18.27;10.50;;;;;;;14.23;100.00;101180.53;5066686;28;20131;-56
2023/07/22 01:50:08;;;;;;;20.05;11.85;;;;;;;14.29;100.00;101182.72;5070143;28;20045;-56
2023/07/22 01:52:36;;;;;;;16.83;10.77;;;;;;;14.33;100.00;101180.69;5070580;28;20498;-56
2023/07/22 01:55:06;;;;;;;16.95;10.75;;;;;;;14.32;100.00;101179.84;5067638;28;20037;-56
2023/07/22 01:57:35;;;;;;;17.52;11.13;;;;;;;14.30;100.00;101181.75;5067571;28;20102;-56
2023/07/22 02:00:07;;;;;;;18.73;12.82;;;;;;;14.35;100.00;101174.31;5069636;28;20059;-56
2023/07/22 02:02:36;;;;;;;20.42;11.98;;;;;;;14.35;100.00;101176.13;5070574;28;20041;-57
2023/07/22 02:05:04;;;;;;;19.85;12.75;;;;;;;14.39;100.00;101172.28;5067827;28;20052;-57
2023/07/22 02:07:35;;;;;;;19.58;12.25;;;;;;;14.31;100.00;101177.31;5068524;28;20056;-55
2023/07/22 02:10:05;;;;;;;17.90;11.68;;;;;;;14.31;100.00;101179.94;5071169;28;20128;-57
2023/07/22 02:12:35;;;;;;;19.45;12.05;;;;;;;14.28;100.00;101174.91;5071123;28;20119;-61
2023/07/22 02:15:04;;;;;;;19.90;11.75;;;;;;;14.26;100.00;101177.66;5070766;28;20060;-62
2023/07/22 02:17:33;;;;;;;17.38;11.05;;;;;;;14.25;100.00;101175.09;5066611;28;20091;-61
2023/07/22 02:20:04;;;;;;;18.70;11.98;;;;;;;14.27;100.00;101178.50;5068596;28;20088;-61
2023/07/22 02:22:32;;;;;;;19.92;11.75;;;;;;;14.22;100.00;101170.06;5073241;28;20094;-61
2023/07/22 02:25:00;;;;;;;18.05;12.27;;;;;;;14.22;100.00;101165.63;5074174;28;20109;-61
2023/07/22 02:27:28;;;;;;;19.48;12.60;;;;;;;14.27;100.00;101163.47;5056282;28;20048;-56
2023/07/22 02:29:58;;;;;;;18.52;11.73;;;;;;;14.15;100.00;101161.75;5070220;28;20037;-56
2023/07/22 02:32:26;;;;;;;19.73;12.27;;;;;;;14.09;100.00;101159.56;5070641;28;20407;-61
2023/07/22 02:34:55;;;;;;;20.50;12.80;;;;;;;13.92;100.00;101169.63;5072543;28;20052;-56
2023/07/22 02:37:26;;;;;;;19.92;12.35;;;;;;;14.01;100.00;101166.25;5074306;28;20071;-57
2023/07/22 02:39:56;;;;;;;22.60;14.10;;;;;;;13.98;100.00;101169.13;5071351;28;20083;-56
2023/07/22 02:42:24;;;;;;;19.65;12.60;;;;;;;13.95;100.00;101164.09;5070908;28;20048;-61
2023/07/22 02:44:52;;;;;;;25.42;12.75;;;;;;;13.96;100.00;101163.13;5070840;28;20049;-62
2023/07/22 02:47:22;;;;;;;20.80;13.55;;;;;;;14.00;100.00;101161.09;5074185;28;20045;-57
2023/07/22 02:49:50;;;;;;;21.60;13.45;;;;;;;13.95;100.00;101163.25;5074068;28;20844;-61
2023/07/22 02:52:18;;;;;;;18.17;12.75;;;;;;;13.89;100.00;101161.06;5053896;28;20055;-61
2023/07/22 02:55:06;;;;;;;21.42;13.60;;;;;;;13.93;100.00;101165.16;5052088;28;20041;-61
2023/07/22 02:57:34;;;;;;;20.58;12.98;;;;;;;13.86;100.00;101165.63;5070383;28;20059;-62
2023/07/22 03:00:07;;;;;;;20.13;13.00;;;;;;;13.92;100.00;101172.25;5069560;28;20110;-61
2023/07/22 03:02:36;;;;;;;20.05;12.38;;;;;;;13.84;100.00;101174.63;5072176;28;20040;-61
2023/07/22 03:05:07;;;;;;;20.58;13.02;;;;;;;13.78;100.00;101172.41;5071344;28;20048;-61
2023/07/22 03:07:36;;;;;;;18.40;11.98;;;;;;;13.78;100.00;101175.88;5069660;28;20060;-61
2023/07/22 03:10:06;;;;;;;19.00;12.57;;;;;;;13.85;100.00;101174.50;5072046;28;20044;-61
2023/07/22 03:12:35;;;;;;;20.67;12.90;;;;;;;13.78;100.00;101173.25;5072051;28;20040;-56
2023/07/22 03:15:04;;;;;;;19.58;12.73;;;;;;;13.77;100.00;101171.59;5051339;28;20063;-61
2023/07/22 03:17:32;;;;;;;21.00;12.68;;;;;;;13.67;100.00;101170.56;5069358;28;20045;-61
2023/07/22 03:20:02;;;;;;;20.70;12.38;;;;;;;13.71;100.00;101172.03;5070414;28;20065;-61
2023/07/22 03:22:31;;;;;;;20.08;12.10;;;;;;;13.73;100.00;101172.78;5069605;28;20052;-61
2023/07/22 03:24:59;;;;;;;22.67;12.57;;;;;;;13.73;100.00;101172.78;5069843;28;20053;-62
2023/07/22 03:27:30;;;;;;;20.42;12.90;;;;;;;13.70;100.00;101180.91;5070209;28;20051;-61
2023/07/22 03:29:58;;;;;;;21.23;13.23;;;;;;;13.60;100.00;101180.72;5072270;28;20501;-56
2023/07/22 03:32:26;;;;;;;22.33;13.63;;;;;;;13.64;100.00;101176.91;5068459;28;20052;-61
2023/07/22 03:34:54;;;;;;;19.95;13.32;;;;;;;13.64;100.00;101176.06;5069873;28;20048;-61
2023/07/22 03:37:24;;;;;;;20.70;13.00;;;;;;;13.49;100.00;101175.38;5069913;28;20071;-57
2023/07/22 03:39:52;;;;;;;19.52;12.73;;;;;;;13.51;100.00;101173.47;5069220;28;20131;-56
2023/07/22 03:42:20;;;;;;;23.33;13.57;;;;;;;13.49;100.00;101175.38;5071631;28;20046;-61
2023/07/22 03:44:48;;;;;;;21.83;12.80;;;;;;;13.41;100.00;101177.75;5068124;28;20052;-61
2023/07/22 03:47:16;;;;;;;21.20;13.73;;;;;;;13.48;100.00;101182.47;5069014;28;20051;-56
2023/07/22 03:49:45;;;;;;;20.85;13.70;;;;;;;13.40;100.00;101183.97;5069692;28;20081;-56
2023/07/22 03:52:14;;;;;;;22.45;13.82;;;;;;;13.34;100.00;101180.78;5070905;28;20037;-61
2023/07/22 03:54:43;;;;;;;20.67;13.30;;;;;;;13.33;100.00;101179.09;5072811;28;20041;-61
2023/07/22 03:57:11;;;;;;;20.42;12.85;;;;;;;13.34;100.00;101175.50;5072689;28;20056;-61
2023/07/22 03:59:40;;;;;;;22.75;13.93;;;;;;;13.41;100.00;101173.28;5072594;28;20557;-61
2023/07/22 04:02:08;;;;;;;20.67;13.80;;;;;;;13.35;100.00;101173.72;5072341;28;20049;-61
2023/07/22 04:04:37;;;;;;;22.95;13.57;;;;;;;13.44;100.00;101174.88;5070545;28;20113;-60
2023/07/22 04:07:07;;;;;;;23.13;13.38;;;;;;;13.35;100.00;101179.00;5069111;28;20040;-61
2023/07/22 04:09:36;;;;;;;23.27;14.18;;;;;;;13.40;100.00;101174.22;5068871;28;20044;-61
2023/07/22 04:12:06;;;;;;;23.77;14.20;;;;;;;13.37;100.00;101179.75;5069556;28;20040;-63
2023/07/22 04:14:35;;;;;;;21.73;13.02;;;;;;;13.40;100.00;101184.81;5072595;28;20102;-63
2023/07/22 04:17:04;;;;;;;22.60;13.85;;;;;;;13.47;100.00;101172.00;5072743;28;20353;-63
2023/07/22 04:19:34;;;;;;;22.38;13.88;;;;;;;13.48;100.00;101173.69;5070414;28;20135;-62
2023/07/22 04:22:03;;;;;;;23.88;13.90;;;;;;;13.46;100.00;101178.25;5084623;28;20044;-61
2023/07/22 04:24:34;;;;;;;23.02;13.25;;;;;;;13.39;100.00;101182.28;5072153;28;20053;-62
2023/07/22 04:27:02;;;;;;;21.42;14.07;;;;;;;13.38;100.00;101181.44;5070919;28;20048;-61
2023/07/22 04:29:32;;;;;;;22.05;13.77;;;;;;;13.35;100.00;101182.50;5067425;28;20547;-61
2023/07/22 04:32:01;;;;;;;23.50;14.15;;;;;;;13.35;100.00;101182.50;5050883;28;20102;-61
2023/07/22 04:34:30;;;;;;;22.30;13.35;;;;;;;13.38;100.00;101181.44;5068831;28;20052;-61
2023/07/22 04:36:58;;;;;;;23.52;14.05;;;;;;;13.38;100.00;101181.44;5071449;28;20070;-61
2023/07/22 04:39:27;;;;;;;21.92;13.10;;;;;;;13.47;100.00;101185.22;5068969;28;20036;-61
2023/07/22 04:41:56;;;;;;;23.55;14.05;;;;;;;13.45;100.00;101187.13;5069637;28;20044;-61
2023/07/22 04:44:25;;;;;;;26.20;15.45;;;;;;;13.44;100.00;101180.16;5071787;28;20567;-62
2023/07/22 04:46:54;;;;;;;23.90;14.23;;;;;;;13.53;100.00;101182.97;5053785;28;20110;-62
2023/07/22 04:49:22;;;;;;;24.35;15.82;;;;;;;13.54;100.00;101175.91;5069162;28;20044;-62
2023/07/22 04:51:51;;;;;;;25.70;15.43;;;;;;;13.55;100.00;101166.16;5051182;28;20106;-61
2023/07/22 04:54:19;;;;;;;23.20;14.38;;;;;;;13.55;100.00;101171.44;5071949;28;20076;-62
2023/07/22 04:56:47;;;;;;;27.50;15.55;;;;;;;13.56;100.00;101179.25;5072124;28;20746;-61
2023/07/22 04:59:16;;;;;;;27.10;15.73;;;;;;;13.54;100.00;101175.91;5071558;28;20518;-61
2023/07/22 05:01:44;;;;;;;28.02;15.63;;;;;;;13.58;100.00;101177.38;5071665;28;20057;-62
2023/07/22 05:04:14;;;;;;;24.98;15.07;;;;;;;13.66;100.00;101179.44;5068574;28;20048;-61
2023/07/22 05:06:42;;;;;;;27.17;16.00;;;;;;;13.73;100.00;101182.47;5069202;28;20079;-61
2023/07/22 05:09:10;;;;;;;30.05;16.08;;;;;;;13.75;100.00;101180.56;5070033;28;20070;-61
2023/07/22 05:11:41;;;;;;;25.77;15.73;;;;;;;13.78;100.00;101181.19;5068209;28;20056;-61
2023/07/22 05:14:09;;;;;;;25.42;16.02;;;;;;;13.84;100.00;101187.84;5067471;28;20151;-62
2023/07/22 05:16:37;;;;;;;29.10;15.68;;;;;;;13.92;100.00;101192.53;5067654;28;20403;-61
2023/07/22 05:19:07;;;;;;;27.35;16.15;;;;;;;13.97;100.00;101190.41;5050537;28;20118;-62
2023/07/22 05:21:37;;;;;;;29.30;16.15;;;;;;;14.05;100.00;101197.78;5068172;28;20703;-61
2023/07/22 05:24:06;;;;;;;27.42;15.93;;;;;;;14.11;100.00;101192.03;5070196;28;20050;-61
2023/07/22 05:26:34;;;;;;;31.42;16.38;;;;;;;14.14;100.00;101187.34;5071363;28;20166;-61
2023/07/22 05:29:02;;;;;;;26.10;15.85;;;;;;;14.17;100.00;101188.94;5071536;28;20045;-61
2023/07/22 05:31:31;;;;;;;29.35;16.95;;;;;;;14.28;100.00;101181.03;5070903;28;20044;-62
2023/07/22 05:33:59;;;;;;;27.92;17.15;;;;;;;14.34;100.00;101183.22;5067838;28;20452;-62
2023/07/22 05:36:27;;;;;;;28.40;17.55;;;;;;;14.43;100.00;101181.66;5069284;28;20410;-62
2023/07/22 05:38:58;;;;;;;29.63;17.83;;;;;;;14.45;100.00;101186.84;5070917;28;20090;-63
2023/07/22 05:41:27;;;;;;;29.38;18.00;;;;;;;14.46;100.00;101185.88;5071118;28;20049;-61
2023/07/22 05:43:55;;;;;;;29.83;17.45;;;;;;;14.56;100.00;101189.53;5071076;28;20049;-62
2023/07/22 05:46:23;;;;;;;27.45;17.85;;;;;;;14.65;100.00;101193.28;5070025;28;20402;-61
2023/07/22 05:48:51;;;;;;;29.05;17.98;;;;;;;14.78;100.00;101186.09;5050213;28;20438;-61
2023/07/22 05:51:20;;;;;;;32.92;17.80;;;;;;;14.81;100.00;101179.72;5068203;28;20040;-61
2023/07/22 05:53:48;;;;;;;31.77;17.33;;;;;;;14.84;100.00;101182.94;5070789;28;20199;-61
2023/07/22 05:56:17;;;;;;;31.45;17.55;;;;;;;14.95;100.00;101189.22;5071855;28;20120;-61
2023/07/22 05:58:46;;;;;;;28.63;16.48;;;;;;;15.01;100.00;101188.72;5074671;28;20048;-62
2023/07/22 06:01:14;;;;;;;29.50;17.20;;;;;;;15.07;100.00;101184.78;5074867;28;20392;-62
2023/07/22 06:03:43;;;;;;;28.23;16.95;;;;;;;15.12;100.00;101188.75;5072910;28;20048;-61
2023/07/22 06:06:11;;;;;;;26.45;16.45;;;;;;;15.26;100.00;101187.66;5071945;28;20064;-61
2023/07/22 06:08:40;;;;;;;28.55;16.63;;;;;;;15.32;100.00;101181.84;5073460;28;20383;-61
2023/07/22 06:11:08;;;;;;;28.08;17.40;;;;;;;15.43;100.00;101177.50;5071609;28;20051;-61
2023/07/22 06:13:37;;;;;;;25.77;16.00;;;;;;;15.58;100.00;101186.03;5069767;28;20045;-62
2023/07/22 06:16:05;;;;;;;25.90;16.73;;;;;;;15.77;100.00;101177.41;5071622;28;20076;-56
2023/07/22 06:18:34;;;;;;;30.27;18.90;;;;;;;15.92;100.00;101178.81;5073336;28;20117;-57
2023/07/22 06:21:04;;;;;;;28.02;17.02;;;;;;;16.00;100.00;101176.38;5074258;28;20124;-57
2023/07/22 06:23:32;;;;;;;28.92;16.20;;;;;;;16.10;100.00;101176.47;5073460;28;20037;-62
2023/07/22 06:26:00;;;;;;;29.52;16.42;;;;;;;16.13;100.00;101173.56;5071139;28;20032;-62
2023/07/22 06:28:29;;;;;;;26.30;16.55;;;;;;;16.22;100.00;101170.16;5073116;28;20040;-62
2023/07/22 06:30:58;;;;;;;27.10;16.60;;;;;;;16.29;100.00;101175.78;5074426;28;20052;-56
2023/07/22 06:33:26;;;;;;;31.13;15.95;;;;;;;16.38;100.00;101180.28;5074367;28;20044;-56
2023/07/22 06:35:54;;;;;;;26.05;15.98;;;;;;;16.51;100.00;101189.88;5071062;28;20044;-56
2023/07/22 06:38:25;;;;;;;22.75;14.73;;;;;;;16.57;100.00;101186.69;5071581;28;20060;-56
2023/07/22 06:40:54;;;;;;;24.80;15.10;;;;;;;16.70;100.00;101186.47;5072195;28;20052;-62
2023/07/22 06:43:22;;;;;;;24.52;15.38;;;;;;;16.75;100.00;101178.97;5074325;28;20032;-56
2023/07/22 06:45:50;;;;;;;26.25;15.85;;;;;;;16.92;100.00;101182.00;5074138;28;20059;-57
2023/07/22 06:48:20;;;;;;;25.95;14.93;;;;;;;17.04;100.00;101180.94;5071084;28;20049;-62
2023/07/22 06:50:48;;;;;;;24.95;16.25;;;;;;;16.97;100.00;101188.59;5072114;28;20491;-62
2023/07/22 06:53:17;;;;;;;26.40;15.57;;;;;;;17.20;100.00;101175.97;5071894;28;20046;-62
2023/07/22 06:55:52;;;;;;;25.00;15.45;;;;;;;17.36;100.00;101183.44;5070437;28;20052;-62
2023/07/22 06:58:22;;;;;;;23.55;15.60;;;;;;;17.47;100.00;101176.31;5073274;28;20041;-57
2023/07/22 07:00:54;;;;;;;25.20;15.43;;;;;;;17.65;100.00;101185.28;5072875;28;20515;-57
2023/07/22 07:03:24;;;;;;;23.50;14.43;;;;;;;17.79;100.00;101183.22;5052309;28;20147;-57
2023/07/22 07:05:56;;;;;;;24.25;14.23;;;;;;;17.94;100.00;101189.00;5072082;28;20071;-57
2023/07/22 07:08:24;;;;;;;24.25;14.43;;;;;;;18.01;100.00;101180.31;5072618;28;20119;-57
2023/07/22 07:10:53;;;;;;;21.15;13.70;;;;;;;18.03;100.00;101185.50;5070907;28;20044;-57
2023/07/22 07:13:23;;;;;;;24.90;15.25;;;;;;;18.03;100.00;101178.34;5069555;28;20110;-57
2023/07/22 07:15:51;;;;;;;23.55;15.68;;;;;;;18.12;100.00;101178.47;5069718;28;20519;-57
2023/07/22 07:18:20;;;;;;;22.23;14.60;;;;;;;18.06;100.00;101180.75;5071601;28;20057;-57
2023/07/22 07:20:50;;;;;;;23.65;13.75;;;;;;;18.21;100.00;101180.31;5071650;28;20126;-57
2023/07/22 07:23:22;;;;;;;21.27;13.70;;;;;;;18.15;100.00;101181.72;5070268;28;20044;-57
2023/07/22 07:25:50;;;;;;;22.02;13.40;;;;;;;18.19;100.00;101171.63;5069836;28;20110;-57
2023/07/22 07:28:18;;;;;;;20.73;13.23;;;;;;;18.29;100.00;101177.75;5069340;28;20036;-57
2023/07/22 07:30:46;;;;;;;20.73;12.27;;;;;;;18.45;100.00;101166.53;5069141;28;20565;-57
2023/07/22 07:33:15;;;;;;;24.02;13.63;;;;;;;18.56;100.00;101173.53;5070098;28;20078;-57
2023/07/22 07:35:47;;;;;;;22.05;13.02;;;;;;;18.70;100.00;101175.69;5072511;28;20140;-57
2023/07/22 07:38:17;;;;;;;21.73;13.13;;;;;;;18.69;100.00;101174.03;5073035;28;20566;-57
2023/07/22 07:40:45;;;;;;;18.75;13.20;;;;;;;18.77;100.00;101172.47;5070003;28;20068;-57
2023/07/22 07:43:13;;;;;;;22.15;12.27;;;;;;;18.87;100.00;101166.13;5069675;28;20446;-57
2023/07/22 07:45:41;;;;;;;17.13;11.48;;;;;;;18.94;100.00;101166.41;5070426;28;20064;-57
2023/07/22 07:48:10;;;;;;;17.73;11.80;;;;;;;19.21;100.00;101167.38;5072900;28;20567;-57
2023/07/22 07:50:39;;;;;;;19.92;11.18;;;;;;;19.30;100.00;101168.34;5072624;28;20054;-57
2023/07/22 07:53:07;;;;;;;17.65;11.02;;;;;;;19.41;100.00;101162.78;5072804;28;20399;-57
2023/07/22 07:55:36;;;;;;;15.68;10.63;;;;;;;19.51;100.00;101162.72;5069199;28;20153;-57
2023/07/22 07:58:05;;;;;;;17.05;10.75;;;;;;;19.61;100.00;101166.16;5071441;28;20492;-57
2023/07/22 08:00:33;;;;;;;18.48;11.57;;;;;;;19.53;100.00;101166.91;5072616;28;20064;-56
2023/07/22 08:03:01;;;;;;;19.42;11.45;;;;;;;19.63;100.00;101164.16;5072542;28;20132;-56
2023/07/22 08:05:32;;;;;;;16.00;9.95;;;;;;;19.92;100.00;101165.81;5072713;28;20067;-55
2023/07/22 08:08:00;;;;;;;18.58;10.32;;;;;;;20.16;100.00;101164.34;5071855;28;20090;-56
2023/07/22 08:10:28;;;;;;;17.33;9.88;;;;;;;20.00;100.00;101165.03;5069246;28;20041;-56
2023/07/22 08:12:59;;;;;;;15.02;9.32;;;;;;;20.30;100.00;101169.13;5070966;28;20385;-55
2023/07/22 08:15:29;;;;;;;13.90;8.77;;;;;;;20.22;100.00;101164.56;5068403;28;20052;-55
2023/07/22 08:17:57;;;;;;;16.20;9.70;;;;;;;20.16;100.00;101159.00;5068825;28;20473;-55
2023/07/22 08:20:25;;;;;;;13.48;8.95;;;;;;;20.33;100.00;101168.81;5071066;28;20119;-56
2023/07/22 08:22:53;;;;;;;16.98;8.77;;;;;;;20.18;100.00;101170.34;5068953;28;20044;-56
2023/07/22 08:25:21;;;;;;;12.45;8.45;;;;;;;20.52;100.00;101165.09;5068778;28;20048;-56
2023/07/22 08:27:49;;;;;;;18.20;8.85;;;;;;;20.68;100.00;101169.72;5069272;28;20443;-56
2023/07/22 08:30:19;;;;;;;14.45;8.35;;;;;;;20.77;100.00;101167.94;5071764;28;20174;-56
2023/07/22 08:32:47;;;;;;;15.13;8.13;;;;;;;20.96;100.00;101166.84;5072474;28;20040;-63
2023/07/22 08:35:17;;;;;;;16.63;8.57;;;;;;;21.06;100.00;101170.22;5072394;28;20049;-56
2023/07/22 08:37:46;;;;;;;13.80;7.85;;;;;;;21.13;100.00;101172.25;5070237;28;20135;-55
2023/07/22 08:40:15;;;;;;;16.15;8.57;;;;;;;20.94;100.00;101166.16;5068928;28;20040;-55
2023/07/22 08:42:43;;;;;;;15.18;8.60;;;;;;;20.87;100.00;101165.13;5066818;28;20044;-57
2023/07/22 08:45:14;;;;;;;13.13;8.13;;;;;;;21.14;100.00;101171.28;5070902;28;20117;-62
2023/07/22 08:47:47;;;;;;;14.48;9.18;;;;;;;20.87;100.00;101165.13;5072017;28;20039;-65
2023/07/22 08:50:21;;;;;;;14.32;8.50;;;;;;;21.05;100.00;101165.91;5071794;28;20113;-55
2023/07/22 08:52:50;;;;;;;14.75;8.30;;;;;;;21.20;100.00;101167.94;5069399;28;20155;-55
2023/07/22 08:55:19;;;;;;;14.88;9.18;;;;;;;21.22;100.00;101173.97;5068034;28;20079;-57
2023/07/22 08:57:51;;;;;;;16.33;9.73;;;;;;;21.25;100.00;101169.13;5069045;28;20052;-56
2023/07/22 09:00:19;;;;;;;16.02;8.80;;;;;;;21.41;100.00;101168.34;5071554;28;20491;-56
2023/07/22 09:02:50;;;;;;;23.52;10.95;;;;;;;21.23;100.00;101173.81;5071676;28;20414;-56
2023/07/22 09:05:20;;;;;;;37.13;15.73;;;;;;;21.38;100.00;101162.50;5069250;28;20090;-57
2023/07/22 09:07:49;;;;;;;18.08;10.18;;;;;;;21.51;100.00;101164.69;5068175;28;20041;-56
2023/07/22 09:10:19;;;;;;;14.98;8.77;;;;;;;21.45;100.00;101167.00;5071043;28;20052;-56
2023/07/22 09:12:48;;;;;;;14.32;7.90;;;;;;;21.40;100.00;101169.31;5067757;28;20049;-56
2023/07/22 09:15:16;;;;;;;13.32;8.00;;;;;;;21.63;100.00;101171.44;5067436;28;20047;-56
2023/07/22 09:17:46;;;;;;;13.38;8.15;;;;;;;21.71;100.00;101174.09;5067771;28;20059;-64
2023/07/22 09:20:16;;;;;;;16.25;8.30;;;;;;;21.72;100.00;101170.44;5070673;28;20044;-64
2023/07/22 09:22:45;;;;;;;13.65;7.70;;;;;;;21.59;100.00;101168.22;5069484;28;20427;-56
2023/07/22 09:25:19;;;;;;;13.30;8.05;;;;;;;21.64;100.00;101172.25;5069737;28;20044;-56
2023/07/22 09:27:48;;;;;;;12.65;7.55;;;;;;;21.78;100.00;101167.09;5068088;28;20491;-56
2023/07/22 09:30:25;;;;;;;13.93;7.50;;;;;;;21.72;100.00;101167.75;5066486;28;20097;-64
2023/07/22 09:32:54;;;;;;;13.05;5.97;;;;;;;21.85;100.00;101163.75;5067739;28;20052;-65
2023/07/22 09:35:27;;;;;;;10.88;6.20;;;;;;;21.97;100.00;101159.75;5068061;28;20621;-65
2023/07/22 09:37:56;;;;;;;11.48;6.57;;;;;;;21.83;100.00;101157.72;5067660;28;20055;-65
2023/07/22 09:40:25;;;;;;;12.68;6.18;;;;;;;21.64;100.00;101159.72;5067575;28;20353;-64
2023/07/22 09:42:54;;;;;;;10.95;6.40;;;;;;;21.64;100.00;101157.06;5069962;28;20060;-65
2023/07/22 09:45:25;;;;;;;10.15;5.88;;;;;;;21.70;100.00;101151.03;5070717;28;20051;-64
2023/07/22 09:47:54;;;;;;;10.07;5.70;;;;;;;21.70;100.00;101153.69;5069816;28;20060;-56
2023/07/22 09:50:26;;;;;;;13.07;5.72;;;;;;;21.87;100.00;101145.66;5068147;28;20143;-65
2023/07/22 09:52:55;;;;;;;9.45;4.78;;;;;;;22.04;100.00;101152.69;5069570;28;20060;-65
2023/07/22 09:55:29;;;;;;;9.55;5.25;;;;;;;22.03;100.00;101148.38;5070794;28;20039;-65
2023/07/22 09:58:01;;;;;;;8.45;4.40;;;;;;;22.20;100.00;101151.03;5070376;28;20472;-65
2023/07/22 10:00:31;;;;;;;10.68;4.70;;;;;;;22.51;100.00;101144.97;5058194;28;20131;-64
2023/07/22 10:03:01;;;;;;;10.20;4.70;;;;;;;22.51;100.00;101147.66;5066984;28;20120;-66
2023/07/22 10:05:34;;;;;;;9.10;4.28;;;;;;;22.59;100.00;101144.94;5083464;28;20036;-66
2023/07/22 10:08:04;;;;;;;8.60;4.25;;;;;;;22.37;100.00;101152.69;5071243;28;20040;-66
2023/07/22 10:10:34;;;;;;;8.05;4.10;;;;;;;22.42;100.00;101150.34;5076126;28;20041;-66
2023/07/22 10:13:03;;;;;;;8.48;4.18;;;;;;;22.43;100.00;101140.50;5072978;28;20152;-66
2023/07/22 10:15:34;;;;;;;7.50;3.85;;;;;;;22.57;100.00;101146.97;5083527;28;20040;-66
2023/07/22 10:18:04;;;;;;;7.72;3.88;;;;;;;22.66;100.00;101151.31;5069482;28;20113;-66
2023/07/22 10:20:36;;;;;;;8.25;3.75;;;;;;;22.61;100.00;101143.78;5067293;28;20048;-66
2023/07/22 10:23:05;;;;;;;8.68;4.70;;;;;;;22.85;100.00;101147.41;5074895;28;20048;-66
2023/07/22 10:25:34;;;;;;;10.07;4.30;;;;;;;22.83;100.00;101143.22;5075415;28;20067;-66
2023/07/22 10:28:03;;;;;;;9.43;4.85;;;;;;;22.93;100.00;101147.34;5075824;28;20119;-67
2023/07/22 10:30:31;;;;;;;9.50;4.88;;;;;;;23.07;100.00;101142.25;5070965;28;20044;-65
2023/07/22 10:32:59;;;;;;;9.75;4.93;;;;;;;23.08;100.00;101146.59;5070776;28;20408;-66
2023/07/22 10:35:44;;;;;;;10.68;4.65;;;;;;;23.10;100.00;101152.66;5070932;28;20131;-66
2023/07/22 10:38:14;;;;;;;9.07;4.70;;;;;;;23.29;100.00;101154.09;5070993;28;20063;-67
2023/07/22 10:40:46;;;;;;;8.98;4.88;;;;;;;23.34;100.00;101140.97;5070743;28;20045;-66
2023/07/22 10:43:17;;;;;;;9.15;4.57;;;;;;;23.30;100.00;101136.94;5074097;28;20040;-57
2023/07/22 10:45:51;;;;;;;8.98;3.95;;;;;;;23.22;100.00;101140.53;5054580;28;20041;-56
2023/07/22 10:48:20;;;;;;;8.80;4.28;;;;;;;23.37;100.00;101137.94;5072503;28;20099;-55
2023/07/22 10:50:51;;;;;;;9.32;4.25;;;;;;;23.49;100.00;101134.84;5074974;28;20048;-54
2023/07/22 10:53:30;;;;;;;9.23;4.10;;;;;;;23.24;100.00;101133.13;5075792;28;20110;-56
2023/07/22 10:56:12;;;;;;;10.25;4.22;;;;;;;23.62;100.00;101124.34;5058622;28;20040;-55
2023/07/22 10:59:01;;;;;;;7.63;3.63;;;;;;;23.55;100.00;101134.13;5079415;28;20036;-56
2023/07/22 11:01:37;;;;;;;9.32;3.90;;;;;;;23.88;100.00;101125.81;5039219;28;20059;-56
2023/07/22 11:04:30;;;;;;;7.53;3.67;;;;;;;23.96;99.67;101125.78;5037632;28;20558;-57
2023/07/22 11:07:11;;;;;;;7.40;3.70;;;;;;;23.90;96.18;101119.28;5036588;28;20057;-56
2023/07/22 11:09:41;;;;;;;7.25;3.22;;;;;;;23.86;96.24;101120.63;5032966;28;20400;-56
2023/07/22 11:12:13;;;;;;;10.93;3.88;;;;;;;23.66;98.44;101114.09;5034211;28;20059;-56
2023/07/22 11:14:49;;;;;;;7.88;3.45;;;;;;;23.73;93.34;101113.19;5033472;28;20150;-56
2023/07/22 11:17:19;;;;;;;6.65;3.40;;;;;;;23.25;96.46;101115.22;5035431;28;20119;-55